createdAt,value
2018-04-06T00:00:31.291Z,0
2018-04-06T00:01:31.044Z,0
2018-04-06T00:02:31.023Z,0
2018-04-06T00:03:31.254Z,0
2018-04-06T00:04:30.989Z,0
2018-04-06T00:05:30.991Z,0
2018-04-06T00:06:30.964Z,0
2018-04-06T00:07:30.952Z,0
2018-04-06T00:08:30.946Z,0
2018-04-06T00:09:30.927Z,0
2018-04-06T00:10:31.167Z,0
2018-04-06T00:11:30.667Z,0
2018-04-06T00:12:31.154Z,0
2018-04-06T00:13:30.893Z,0
2018-04-06T00:14:30.611Z,0
2018-04-06T00:15:31.125Z,0
2018-04-06T00:16:31.094Z,0
2018-04-06T00:17:30.828Z,0
2018-04-06T00:18:30.824Z,0
2018-04-06T00:19:30.548Z,0
2018-04-06T00:20:30.541Z,0
2018-04-06T00:21:31.039Z,0
2018-04-06T00:22:31.026Z,0
2018-04-06T00:23:30.752Z,0
2018-04-06T00:24:30.485Z,0
2018-04-06T00:25:30.983Z,0
2018-04-06T00:26:30.725Z,0
2018-04-06T00:27:30.516Z,0
2018-04-06T00:28:30.980Z,0
2018-04-06T00:29:30.929Z,0
2018-04-06T00:30:30.935Z,0
2018-04-06T00:31:30.649Z,0
2018-04-06T00:32:30.897Z,0
2018-04-06T00:33:30.627Z,0
2018-04-06T00:34:30.617Z,0
2018-04-06T00:35:30.852Z,0
2018-04-06T00:36:30.603Z,0
2018-04-06T00:37:30.834Z,0
2018-04-06T00:38:30.818Z,0
2018-04-06T00:39:30.803Z,0
2018-04-06T00:40:30.797Z,0
2018-04-06T00:41:30.530Z,0
2018-04-06T00:42:30.513Z,0
2018-04-06T00:43:30.770Z,0
2018-04-06T00:44:30.745Z,0
2018-04-06T00:45:30.742Z,0
2018-04-06T00:46:30.737Z,0
2018-04-06T00:47:30.778Z,0
2018-04-06T00:48:30.442Z,0
2018-04-06T00:49:30.423Z,0
2018-04-06T00:50:30.410Z,0
2018-04-06T00:51:30.146Z,0
2018-04-06T00:52:30.643Z,0
2018-04-06T00:53:30.635Z,0
2018-04-06T00:54:30.359Z,0
2018-04-06T00:55:30.602Z,0
2018-04-06T00:56:30.602Z,0
2018-04-06T00:57:30.573Z,0
2018-04-06T00:58:30.315Z,0
2018-04-06T00:59:30.295Z,0
2018-04-06T01:00:29.526Z,0
2018-04-06T01:01:30.521Z,0
2018-04-06T01:02:30.262Z,0
2018-04-06T01:03:30.497Z,0
2018-04-06T01:04:29.979Z,0
2018-04-06T01:05:30.470Z,0
2018-04-06T01:06:30.216Z,0
2018-04-06T01:07:30.462Z,0
2018-04-06T01:08:29.930Z,0
2018-04-06T01:09:29.923Z,0
2018-04-06T01:10:30.153Z,0
2018-04-06T01:11:30.140Z,0
2018-04-06T01:12:30.383Z,0
2018-04-06T01:13:29.867Z,0
2018-04-06T01:14:30.137Z,0
2018-04-06T01:15:30.353Z,0
2018-04-06T01:16:30.406Z,0
2018-04-06T01:17:29.814Z,0
2018-04-06T01:18:30.307Z,0
2018-04-06T01:19:29.785Z,0
2018-04-06T01:20:30.029Z,0
2018-04-06T01:21:30.290Z,0
2018-04-06T01:22:30.003Z,0
2018-04-06T01:23:30.269Z,0
2018-04-06T01:24:30.258Z,0
2018-04-06T01:25:29.978Z,0
2018-04-06T01:26:29.953Z,0
2018-04-06T01:27:29.936Z,0
2018-04-06T01:28:29.924Z,0
2018-04-06T01:29:30.171Z,0
2018-04-06T01:30:30.154Z,0
2018-04-06T01:31:30.154Z,0
2018-04-06T01:32:30.127Z,0
2018-04-06T01:33:29.610Z,0
2018-04-06T01:34:30.096Z,0
2018-04-06T01:35:30.113Z,0
2018-04-06T01:36:29.579Z,0
2018-04-06T01:37:30.060Z,0
2018-04-06T01:38:29.542Z,0
2018-04-06T01:39:30.042Z,0
2018-04-06T01:40:30.068Z,0
2018-04-06T01:44:29.457Z,0
2018-04-06T01:45:29.964Z,0
2018-04-06T01:46:29.940Z,0
2018-04-06T01:47:29.926Z,0
2018-04-06T01:48:29.403Z,0
2018-04-06T01:49:29.917Z,0
2018-04-06T01:50:29.888Z,0
2018-04-06T01:51:29.893Z,0
2018-04-06T01:52:29.607Z,0
2018-04-06T01:53:29.598Z,0
2018-04-06T01:54:29.332Z,0
2018-04-06T01:55:29.565Z,0
2018-04-06T01:56:29.808Z,0
2018-04-06T01:57:29.791Z,0
2018-04-06T01:58:29.524Z,0
2018-04-06T01:59:29.764Z,0
2018-04-06T02:00:29.501Z,0
2018-04-06T02:01:29.233Z,0
2018-04-06T02:02:29.466Z,0
2018-04-06T02:03:29.711Z,0
2018-04-06T02:04:29.444Z,0
2018-04-06T02:05:29.177Z,0
2018-04-06T02:06:29.669Z,0
2018-04-06T02:07:29.668Z,0
2018-04-06T02:08:29.388Z,0
2018-04-06T02:09:29.379Z,0
2018-04-06T02:10:29.611Z,0
2018-04-06T02:11:29.602Z,0
2018-04-06T02:12:29.334Z,0
2018-04-06T02:13:29.580Z,0
2018-04-06T02:14:29.569Z,0
2018-04-06T02:15:29.543Z,0
2018-04-06T02:16:29.540Z,0
2018-04-06T02:17:29.264Z,0
2018-04-06T02:18:29.262Z,0
2018-04-06T02:19:28.736Z,0
2018-04-06T02:20:29.227Z,0
2018-04-06T02:21:29.470Z,0
2018-04-06T02:22:29.205Z,0
2018-04-06T02:23:29.190Z,0
2018-04-06T02:24:29.321Z,0
2018-04-06T02:25:29.410Z,0
2018-04-06T02:26:29.143Z,0
2018-04-06T02:27:29.386Z,0
2018-04-06T02:28:29.370Z,0
2018-04-06T02:29:29.106Z,0
2018-04-06T02:30:29.098Z,0
2018-04-06T02:31:29.098Z,0
2018-04-06T02:32:28.822Z,0
2018-04-06T02:33:29.060Z,0
2018-04-06T02:34:29.043Z,0
2018-04-06T02:35:29.290Z,0
2018-04-06T02:36:29.287Z,0
2018-04-06T02:37:29.274Z,0
2018-04-06T02:38:29.252Z,0
2018-04-06T02:39:28.987Z,0
2018-04-06T02:40:28.964Z,0
2018-04-06T02:41:29.219Z,0
2018-04-06T02:42:29.219Z,0
2018-04-06T02:43:28.924Z,0
2018-04-06T02:44:28.910Z,0
2018-04-06T02:45:29.162Z,0
2018-04-06T02:46:29.146Z,0
2018-04-06T02:47:28.872Z,0
2018-04-06T02:48:29.125Z,0
2018-04-06T02:49:28.850Z,0
2018-04-06T02:50:28.827Z,0
2018-04-06T02:51:28.820Z,0
2018-04-06T02:52:29.062Z,0
2018-04-06T02:53:28.785Z,0
2018-04-06T02:54:28.013Z,0
2018-04-06T02:55:28.765Z,0
2018-04-06T02:56:28.999Z,0
2018-04-06T02:57:32.803Z,0
2018-04-06T02:58:28.715Z,0
2018-04-06T02:59:28.969Z,0
2018-04-06T03:00:28.949Z,0
2018-04-06T03:01:28.946Z,0
2018-04-06T03:02:28.923Z,0
2018-04-06T03:03:28.910Z,0
2018-04-06T03:04:28.884Z,0
2018-04-06T03:05:28.632Z,0
2018-04-06T03:06:28.614Z,0
2018-04-06T03:07:28.849Z,0
2018-04-06T03:08:28.836Z,0
2018-04-06T03:09:28.647Z,0
2018-04-06T03:10:28.552Z,0
2018-04-06T03:11:28.541Z,0
2018-04-06T03:12:28.528Z,0
2018-04-06T03:13:28.515Z,0
2018-04-06T03:14:28.500Z,0
2018-04-06T03:15:28.485Z,0
2018-04-06T03:16:28.722Z,0
2018-04-06T03:17:28.710Z,0
2018-04-06T03:18:28.698Z,0
2018-04-06T03:19:28.728Z,0
2018-04-06T03:20:27.912Z,0
2018-04-06T03:21:28.399Z,0
2018-04-06T03:22:28.642Z,0
2018-04-06T03:23:28.121Z,0
2018-04-06T03:24:28.362Z,0
2018-04-06T03:25:28.600Z,0
2018-04-06T03:26:28.592Z,0
2018-04-06T03:27:28.571Z,0
2018-04-06T03:28:27.804Z,0
2018-04-06T03:29:28.296Z,0
2018-04-06T03:30:28.542Z,0
2018-04-06T03:31:28.274Z,0
2018-04-06T03:32:28.257Z,0
2018-04-06T03:33:28.233Z,0
2018-04-06T03:34:28.473Z,0
2018-04-06T03:35:28.213Z,0
2018-04-06T03:36:28.444Z,0
2018-04-06T03:37:28.181Z,0
2018-04-06T03:38:28.415Z,0
2018-04-06T03:39:27.645Z,0
2018-04-06T03:40:28.397Z,0
2018-04-06T03:41:28.376Z,0
2018-04-06T03:42:28.114Z,0
2018-04-06T03:43:27.844Z,0
2018-04-06T03:44:28.086Z,0
2018-04-06T03:45:28.323Z,0
2018-04-06T03:46:28.317Z,0
2018-04-06T03:47:27.791Z,0
2018-04-06T03:48:27.528Z,0
2018-04-06T03:49:28.271Z,0
2018-04-06T03:50:28.011Z,0
2018-04-06T03:51:28.245Z,0
2018-04-06T03:52:27.715Z,0
2018-04-06T03:53:28.215Z,0
2018-04-06T03:54:27.452Z,0
2018-04-06T03:55:28.208Z,0
2018-04-06T03:56:27.917Z,0
2018-04-06T03:57:28.156Z,0
2018-04-06T03:58:28.142Z,0
2018-04-06T03:59:28.126Z,0
2018-04-06T04:00:27.856Z,0
2018-04-06T04:01:27.599Z,0
2018-04-06T04:02:28.248Z,0
2018-04-06T04:03:28.075Z,0
2018-04-06T04:04:27.299Z,0
2018-04-06T04:05:27.282Z,0
2018-04-06T04:06:27.774Z,0
2018-04-06T04:07:27.765Z,0
2018-04-06T04:08:28.013Z,0
2018-04-06T04:09:27.751Z,0
2018-04-06T04:10:27.722Z,0
2018-04-06T04:11:27.450Z,0
2018-04-06T04:12:27.689Z,0
2018-04-06T04:13:27.680Z,0
2018-04-06T04:14:27.714Z,0
2018-04-06T04:15:27.908Z,0
2018-04-06T04:16:27.891Z,0
2018-04-06T04:17:27.621Z,5
2018-04-06T04:18:27.428Z,5
2018-04-06T04:19:27.594Z,5
2018-04-06T04:20:27.851Z,5
2018-04-06T04:21:27.842Z,5
2018-04-06T04:22:27.301Z,5
2018-04-06T04:23:27.282Z,10
2018-04-06T04:24:27.772Z,10
2018-04-06T04:25:27.761Z,10
2018-04-06T04:26:27.497Z,10
2018-04-06T04:27:27.477Z,10
2018-04-06T04:28:27.733Z,15
2018-04-06T04:29:27.748Z,15
2018-04-06T04:30:27.439Z,15
2018-04-06T04:31:27.678Z,15
2018-04-06T04:32:27.668Z,20
2018-04-06T04:33:27.666Z,20
2018-04-06T04:34:27.467Z,25
2018-04-06T04:35:27.618Z,25
2018-04-06T04:36:27.606Z,25
2018-04-06T04:37:27.585Z,30
2018-04-06T04:38:27.583Z,30
2018-04-06T04:39:27.565Z,35
2018-04-06T04:40:27.295Z,35
2018-04-06T04:41:27.028Z,40
2018-04-06T04:42:27.274Z,40
2018-04-06T04:43:27.517Z,45
2018-04-06T04:44:27.255Z,45
2018-04-06T04:45:27.482Z,45
2018-04-06T04:46:27.468Z,45
2018-04-06T04:47:27.451Z,50
2018-04-06T04:48:26.930Z,50
2018-04-06T04:49:27.174Z,55
2018-04-06T04:50:26.904Z,60
2018-04-06T04:51:27.148Z,65
2018-04-06T04:52:27.129Z,75
2018-04-06T04:53:26.908Z,75
2018-04-06T04:54:27.103Z,75
2018-04-06T04:55:27.396Z,80
2018-04-06T04:56:27.325Z,90
2018-04-06T04:57:26.806Z,95
2018-04-06T04:58:27.047Z,95
2018-04-06T04:59:26.781Z,100
2018-04-06T05:00:27.025Z,105
2018-04-06T05:01:27.021Z,110
2018-04-06T05:02:27.274Z,110
2018-04-06T05:03:26.774Z,115
2018-04-06T05:04:26.973Z,125
2018-04-06T05:05:27.213Z,130
2018-04-06T05:06:27.196Z,130
2018-04-06T05:07:26.675Z,145
2018-04-06T05:08:26.931Z,145
2018-04-06T05:09:27.155Z,155
2018-04-06T05:10:26.896Z,150
2018-04-06T05:11:26.883Z,155
2018-04-06T05:12:27.138Z,165
2018-04-06T05:13:27.115Z,170
2018-04-06T05:14:27.111Z,175
2018-04-06T05:15:27.092Z,180
2018-04-06T05:16:27.086Z,185
2018-04-06T05:17:26.815Z,190
2018-04-06T05:18:27.056Z,195
2018-04-06T05:19:26.801Z,200
2018-04-06T05:20:26.530Z,210
2018-04-06T05:21:27.024Z,220
2018-04-06T05:22:27.031Z,225
2018-04-06T05:23:27.172Z,225
2018-04-06T05:24:27.117Z,235
2018-04-06T05:25:26.986Z,235
2018-04-06T05:26:26.472Z,245
2018-04-06T05:27:26.987Z,250
2018-04-06T05:28:26.961Z,260
2018-04-06T05:29:26.986Z,270
2018-04-06T05:30:26.689Z,270
2018-04-06T05:31:26.955Z,280
2018-04-06T05:32:26.733Z,285
2018-04-06T05:33:26.668Z,295
2018-04-06T05:34:26.409Z,295
2018-04-06T05:35:26.905Z,310
2018-04-06T05:36:26.684Z,315
2018-04-06T05:37:26.983Z,325
2018-04-06T05:38:26.385Z,330
2018-04-06T05:39:26.883Z,345
2018-04-06T05:40:26.870Z,350
2018-04-06T05:41:26.359Z,360
2018-04-06T05:42:26.869Z,370
2018-04-06T05:43:26.864Z,370
2018-04-06T05:44:26.592Z,375
2018-04-06T05:45:26.850Z,385
2018-04-06T05:46:26.861Z,390
2018-04-06T05:47:26.335Z,395
2018-04-06T05:48:26.068Z,405
2018-04-06T05:49:26.569Z,410
2018-04-06T05:50:26.570Z,420
2018-04-06T05:51:26.814Z,425
2018-04-06T05:52:26.556Z,430
2018-04-06T05:53:26.299Z,435
2018-04-06T05:54:26.311Z,440
2018-04-06T05:55:26.307Z,445
2018-04-06T05:56:26.793Z,455
2018-04-06T05:57:26.805Z,455
2018-04-06T05:58:26.872Z,460
2018-04-06T05:59:26.812Z,470
2018-04-06T06:00:26.540Z,480
2018-04-06T06:01:26.780Z,485
2018-04-06T06:02:26.791Z,495
2018-04-06T06:03:26.782Z,495
2018-04-06T06:04:26.266Z,500
2018-04-06T06:05:26.766Z,510
2018-04-06T06:06:26.520Z,550
2018-04-06T06:07:26.778Z,575
2018-04-06T06:08:26.255Z,590
2018-04-06T06:09:26.774Z,605
2018-04-06T06:10:26.263Z,620
2018-04-06T06:11:26.508Z,630
2018-04-06T06:12:26.502Z,640
2018-04-06T06:13:26.539Z,650
2018-04-06T06:14:26.514Z,655
2018-04-06T06:15:26.822Z,665
2018-04-06T06:16:26.558Z,675
2018-04-06T06:17:26.500Z,690
2018-04-06T06:21:26.502Z,720
2018-04-06T06:22:26.767Z,720
2018-04-06T06:23:26.812Z,730
2018-04-06T06:24:26.776Z,745
2018-04-06T06:25:38.972Z,775
2018-04-06T06:26:28.024Z,785
2018-04-06T06:27:26.744Z,795
2018-04-06T06:28:26.742Z,805
2018-04-06T06:29:26.546Z,815
2018-04-06T06:30:26.518Z,820
2018-04-06T06:31:26.746Z,830
2018-04-06T06:32:26.796Z,850
2018-04-06T06:33:26.236Z,865
2018-04-06T06:34:26.503Z,875
2018-04-06T06:35:26.754Z,875
2018-04-06T06:36:26.504Z,895
2018-04-06T06:37:26.578Z,900
2018-04-06T06:38:26.757Z,900
2018-04-06T06:39:26.778Z,890
2018-04-06T06:40:26.772Z,870
2018-04-06T06:41:29.303Z,870
2018-04-06T06:42:26.001Z,885
2018-04-06T06:43:39.251Z,885
2018-04-06T06:44:26.770Z,900
2018-04-06T06:45:26.768Z,890
2018-04-06T06:46:26.767Z,920
2018-04-06T06:47:26.773Z,930
2018-04-06T06:48:26.770Z,945
2018-04-06T06:49:26.776Z,950
2018-04-06T06:50:26.777Z,965
2018-04-06T06:51:26.788Z,975
2018-04-06T06:52:26.788Z,975
2018-04-06T06:53:26.784Z,990
2018-04-06T06:54:26.728Z,1005
2018-04-06T06:55:26.549Z,1025
2018-04-06T06:56:26.799Z,1035
2018-04-06T06:57:26.801Z,1030
2018-04-06T06:58:26.568Z,995
2018-04-06T06:59:26.556Z,975
2018-04-06T07:00:26.560Z,930
2018-04-06T07:01:26.846Z,940
2018-04-06T07:02:26.332Z,930
2018-04-06T07:03:26.605Z,940
2018-04-06T07:04:26.858Z,965
2018-04-06T07:05:26.836Z,985
2018-04-06T07:06:26.584Z,1000
2018-04-06T07:07:26.593Z,995
2018-04-06T07:08:26.705Z,1005
2018-04-06T07:09:26.616Z,1010
2018-04-06T07:10:26.652Z,1035
2018-04-06T07:11:26.369Z,1060
2018-04-06T07:12:26.876Z,1090
2018-04-06T07:13:27.204Z,1135
2018-04-06T07:14:26.654Z,1145
2018-04-06T07:15:26.896Z,1165
2018-04-06T07:16:26.890Z,1200
2018-04-06T07:17:26.635Z,1210
2018-04-06T07:18:26.930Z,1225
2018-04-06T07:19:26.974Z,1180
2018-04-06T07:20:26.696Z,1180
2018-04-06T07:21:26.730Z,1180
2018-04-06T07:22:26.962Z,1120
2018-04-06T07:23:26.498Z,1175
2018-04-06T07:24:26.431Z,1310
2018-04-06T07:25:26.958Z,1510
2018-04-06T07:26:26.680Z,1620
2018-04-06T07:27:26.961Z,1640
2018-04-06T07:28:26.956Z,1655
2018-04-06T07:29:26.706Z,1665
2018-04-06T07:30:26.992Z,1670
2018-04-06T07:31:26.756Z,1665
2018-04-06T07:32:26.289Z,1735
2018-04-06T07:33:26.783Z,1755
2018-04-06T07:34:27.027Z,1755
2018-04-06T07:35:26.779Z,1790
2018-04-06T07:36:27.005Z,1820
2018-04-06T07:37:26.773Z,1855
2018-04-06T07:38:26.780Z,1875
2018-04-06T07:39:27.102Z,1905
2018-04-06T07:40:27.093Z,1945
2018-04-06T07:41:26.813Z,1955
2018-04-06T07:42:27.074Z,1930
2018-04-06T07:43:26.566Z,1945
2018-04-06T07:44:27.480Z,1935
2018-04-06T07:45:27.093Z,1940
2018-04-06T07:46:26.324Z,1940
2018-04-06T07:47:26.881Z,1885
2018-04-06T07:48:26.851Z,1900
2018-04-06T07:49:26.870Z,1865
2018-04-06T07:50:27.160Z,1600
2018-04-06T07:51:26.881Z,1325
2018-04-06T07:52:26.669Z,1270
2018-04-06T07:53:27.150Z,1285
2018-04-06T07:54:26.894Z,1280
2018-04-06T07:55:27.181Z,1300
2018-04-06T07:56:29.569Z,1305
2018-04-06T07:57:27.214Z,1310
2018-04-06T07:58:26.930Z,1325
2018-04-06T07:59:27.262Z,1340
2018-04-06T08:00:27.224Z,1335
2018-04-06T08:01:26.981Z,1335
2018-04-06T08:02:27.021Z,1355
2018-04-06T08:03:27.438Z,1350
2018-04-06T08:04:27.016Z,1375
2018-04-06T08:05:27.040Z,1360
2018-04-06T08:06:27.007Z,1370
2018-04-06T08:07:27.341Z,1390
2018-04-06T08:08:27.047Z,1385
2018-04-06T08:09:27.443Z,1435
2018-04-06T08:10:27.138Z,1435
2018-04-06T08:11:27.177Z,1445
2018-04-06T08:12:27.093Z,1495
2018-04-06T08:13:27.490Z,1465
2018-04-06T08:14:27.097Z,1465
2018-04-06T08:15:27.094Z,1440
2018-04-06T08:16:27.318Z,1475
2018-04-06T08:17:27.333Z,1460
2018-04-06T08:18:27.546Z,1485
2018-04-06T08:19:27.076Z,1485
2018-04-06T08:20:26.821Z,1020
2018-04-06T08:21:27.129Z,385
2018-04-06T08:22:27.235Z,240
2018-04-06T08:23:27.508Z,235
2018-04-06T08:24:27.206Z,235
2018-04-06T08:25:27.397Z,235
2018-04-06T08:26:26.807Z,235
2018-04-06T08:27:27.127Z,230
2018-04-06T08:28:26.997Z,230
2018-04-06T08:29:27.503Z,230
2018-04-06T08:30:27.224Z,230
2018-04-06T08:31:27.448Z,230
2018-04-06T08:32:27.148Z,230
2018-04-06T08:33:27.401Z,230
2018-04-06T08:34:27.151Z,230
2018-04-06T08:35:27.154Z,230
2018-04-06T08:36:27.381Z,230
2018-04-06T08:37:27.432Z,225
2018-04-06T08:38:27.169Z,225
2018-04-06T08:39:27.215Z,225
2018-04-06T08:40:26.907Z,225
2018-04-06T08:41:27.403Z,220
2018-04-06T08:42:27.292Z,220
2018-04-06T08:43:27.474Z,220
2018-04-06T08:44:27.244Z,220
2018-04-06T08:45:27.168Z,220
2018-04-06T08:46:27.396Z,220
2018-04-06T08:47:27.103Z,220
2018-04-06T08:48:26.840Z,220
2018-04-06T08:49:27.130Z,220
2018-04-06T08:50:27.122Z,220
2018-04-06T08:51:27.356Z,220
2018-04-06T08:52:27.082Z,225
2018-04-06T08:53:27.397Z,230
2018-04-06T08:54:27.108Z,235
2018-04-06T08:55:27.129Z,230
2018-04-06T08:56:27.060Z,225
2018-04-06T08:57:27.355Z,220
2018-04-06T08:58:26.792Z,220
2018-04-06T08:59:26.853Z,215
2018-04-06T09:00:27.281Z,215
2018-04-06T09:01:26.521Z,215
2018-04-06T09:02:27.050Z,215
2018-04-06T09:03:27.281Z,215
2018-04-06T09:04:27.015Z,215
2018-04-06T09:05:27.347Z,230
2018-04-06T09:06:27.260Z,235
2018-04-06T09:07:27.280Z,225
2018-04-06T09:08:27.352Z,220
2018-04-06T09:09:26.875Z,220
2018-04-06T09:10:27.270Z,235
2018-04-06T09:11:27.243Z,280
2018-04-06T09:12:26.989Z,305
2018-04-06T09:13:26.974Z,285
2018-04-06T09:14:26.702Z,250
2018-04-06T09:15:26.689Z,225
2018-04-06T09:16:27.000Z,225
2018-04-06T09:17:27.204Z,220
2018-04-06T09:18:27.302Z,210
2018-04-06T09:19:27.176Z,210
2018-04-06T09:20:27.174Z,215
2018-04-06T09:21:26.997Z,225
2018-04-06T09:22:27.162Z,260
2018-04-06T09:23:26.893Z,270
2018-04-06T09:24:26.882Z,250
2018-04-06T09:25:26.883Z,235
2018-04-06T09:26:27.143Z,235
2018-04-06T09:27:26.887Z,230
2018-04-06T09:28:26.671Z,220
2018-04-06T09:29:26.874Z,215
2018-04-06T09:30:26.644Z,210
2018-04-06T09:31:27.166Z,205
2018-04-06T09:32:26.854Z,205
2018-04-06T09:33:26.860Z,200
2018-04-06T09:34:26.938Z,200
2018-04-06T09:35:26.876Z,195
2018-04-06T09:36:27.109Z,195
2018-04-06T09:37:26.814Z,200
2018-04-06T09:38:27.264Z,195
2018-04-06T09:39:27.072Z,195
2018-04-06T09:40:26.644Z,195
2018-04-06T09:41:27.167Z,190
2018-04-06T09:42:26.565Z,190
2018-04-06T09:43:27.160Z,195
2018-04-06T09:44:26.808Z,205
2018-04-06T09:45:26.780Z,205
2018-04-06T09:46:26.848Z,205
2018-04-06T09:47:26.896Z,200
2018-04-06T09:48:27.114Z,195
2018-04-06T09:49:26.339Z,195
2018-04-06T09:50:26.763Z,190
2018-04-06T09:51:26.715Z,190
2018-04-06T09:52:26.768Z,190
2018-04-06T09:53:27.101Z,190
2018-04-06T09:54:26.973Z,190
2018-04-06T09:55:26.996Z,185
2018-04-06T09:56:26.720Z,185
2018-04-06T09:57:27.178Z,185
2018-04-06T09:58:27.275Z,190
2018-04-06T09:59:26.735Z,185
2018-04-06T10:00:26.943Z,185
2018-04-06T10:01:26.933Z,180
2018-04-06T10:02:26.939Z,180
2018-04-06T10:03:26.899Z,180
2018-04-06T10:04:26.430Z,180
2018-04-06T10:05:26.652Z,180
2018-04-06T10:06:26.661Z,180
2018-04-06T10:07:26.652Z,180
2018-04-06T10:08:26.607Z,180
2018-04-06T10:09:26.875Z,180
2018-04-06T10:10:26.612Z,180
2018-04-06T10:11:26.860Z,180
2018-04-06T10:12:26.585Z,180
2018-04-06T10:13:26.856Z,180
2018-04-06T10:14:26.691Z,180
2018-04-06T10:15:26.633Z,180
2018-04-06T10:16:26.686Z,180
2018-04-06T10:17:26.342Z,180
2018-04-06T10:18:26.068Z,180
2018-04-06T10:19:26.819Z,180
2018-04-06T10:20:26.831Z,180
2018-04-06T10:21:26.819Z,180
2018-04-06T10:22:26.801Z,180
2018-04-06T10:23:26.035Z,180
2018-04-06T10:24:27.069Z,180
2018-04-06T10:25:26.590Z,180
2018-04-06T10:26:26.589Z,180
2018-04-06T10:27:26.532Z,180
2018-04-06T10:28:26.540Z,180
2018-04-06T10:29:26.505Z,180
2018-04-06T10:30:26.761Z,180
2018-04-06T10:31:26.948Z,180
2018-04-06T10:32:26.195Z,180
2018-04-06T10:33:26.608Z,180
2018-04-06T10:34:26.710Z,180
2018-04-06T10:35:26.818Z,180
2018-04-06T10:36:26.509Z,180
2018-04-06T10:37:26.436Z,180
2018-04-06T10:38:26.518Z,180
2018-04-06T10:39:26.498Z,180
2018-04-06T10:40:26.708Z,180
2018-04-06T10:41:25.905Z,180
2018-04-06T10:42:26.383Z,180
2018-04-06T10:43:26.650Z,180
2018-04-06T10:44:26.179Z,180
2018-04-06T10:45:26.825Z,180
2018-04-06T10:46:26.398Z,175
2018-04-06T10:47:26.116Z,175
2018-04-06T10:48:26.398Z,175
2018-04-06T10:49:26.171Z,175
2018-04-06T10:50:26.120Z,175
2018-04-06T10:51:26.382Z,175
2018-04-06T10:52:26.089Z,175
2018-04-06T10:53:27.046Z,175
2018-04-06T10:54:26.064Z,175
2018-04-06T10:55:26.560Z,175
2018-04-06T10:56:26.296Z,175
2018-04-06T10:57:26.544Z,175
2018-04-06T10:58:26.547Z,175
2018-04-06T10:59:26.297Z,175
2018-04-06T11:00:26.513Z,175
2018-04-06T11:01:26.002Z,175
2018-04-06T11:02:25.744Z,175
2018-04-06T11:03:26.502Z,175
2018-04-06T11:04:26.250Z,175
2018-04-06T11:05:26.478Z,175
2018-04-06T11:06:26.477Z,175
2018-04-06T11:07:26.224Z,175
2018-04-06T11:08:26.227Z,170
2018-04-06T11:09:26.221Z,170
2018-04-06T11:10:26.464Z,170
2018-04-06T11:11:26.449Z,170
2018-04-06T11:12:26.211Z,170
2018-04-06T11:13:26.175Z,170
2018-04-06T11:14:26.193Z,170
2018-04-06T11:15:26.165Z,170
2018-04-06T11:16:26.614Z,170
2018-04-06T11:17:26.411Z,170
2018-04-06T11:18:26.399Z,170
2018-04-06T11:19:26.398Z,170
2018-04-06T11:20:26.402Z,170
2018-04-06T11:21:26.096Z,170
2018-04-06T11:22:26.133Z,170
2018-04-06T11:23:26.147Z,170
2018-04-06T11:24:26.132Z,170
2018-04-06T11:25:26.357Z,170
2018-04-06T11:26:26.351Z,170
2018-04-06T11:27:26.107Z,170
2018-04-06T11:28:25.853Z,170
2018-04-06T11:29:26.094Z,170
2018-04-06T11:30:26.323Z,170
2018-04-06T11:31:26.338Z,170
2018-04-06T11:32:26.091Z,170
2018-04-06T11:33:26.060Z,170
2018-04-06T11:34:26.054Z,170
2018-04-06T11:35:26.048Z,170
2018-04-06T11:36:26.316Z,170
2018-04-06T11:37:26.021Z,170
2018-04-06T11:38:26.299Z,165
2018-04-06T11:39:26.268Z,165
2018-04-06T11:40:25.779Z,165
2018-04-06T11:41:25.999Z,165
2018-04-06T11:42:26.275Z,165
2018-04-06T11:43:26.249Z,165
2018-04-06T11:44:26.248Z,165
2018-04-06T11:45:26.232Z,165
2018-04-06T11:46:26.229Z,165
2018-04-06T11:47:26.235Z,165
2018-04-06T11:48:26.231Z,165
2018-04-06T11:49:26.207Z,165
2018-04-06T11:50:25.939Z,165
2018-04-06T11:51:26.229Z,165
2018-04-06T11:52:26.215Z,165
2018-04-06T11:53:25.935Z,165
2018-04-06T11:54:26.194Z,165
2018-04-06T11:55:26.187Z,165
2018-04-06T11:56:26.174Z,165
2018-04-06T11:57:25.639Z,165
2018-04-06T11:58:25.639Z,165
2018-04-06T11:59:26.130Z,165
2018-04-06T12:00:25.618Z,165
2018-04-06T12:01:26.130Z,165
2018-04-06T12:02:25.891Z,165
2018-04-06T12:03:25.863Z,165
2018-04-06T12:04:26.144Z,165
2018-04-06T12:05:26.114Z,165
2018-04-06T12:06:25.381Z,165
2018-04-06T12:07:26.090Z,165
2018-04-06T12:08:26.128Z,165
2018-04-06T12:09:26.079Z,165
2018-04-06T12:10:26.064Z,165
2018-04-06T12:11:26.466Z,165
2018-04-06T12:12:26.071Z,165
2018-04-06T12:13:26.043Z,165
2018-04-06T12:14:26.058Z,165
2018-04-06T12:15:26.046Z,165
2018-04-06T12:16:26.023Z,165
2018-04-06T12:17:25.533Z,165
2018-04-06T12:18:25.513Z,165
2018-04-06T12:19:26.405Z,165
2018-04-06T12:20:26.036Z,165
2018-04-06T12:21:26.012Z,165
2018-04-06T12:22:26.004Z,165
2018-04-06T12:23:25.743Z,165
2018-04-06T12:24:25.983Z,165
2018-04-06T12:25:25.512Z,165
2018-04-06T12:26:25.760Z,165
2018-04-06T12:27:25.972Z,165
2018-04-06T12:28:25.975Z,165
2018-04-06T12:29:25.952Z,165
2018-04-06T12:30:25.932Z,165
2018-04-06T12:31:25.886Z,160
2018-04-06T12:32:25.667Z,160
2018-04-06T12:33:25.420Z,160
2018-04-06T12:34:25.918Z,160
2018-04-06T12:35:25.899Z,160
2018-04-06T12:36:25.899Z,160
2018-04-06T12:37:25.907Z,160
2018-04-06T12:38:25.646Z,160
2018-04-06T12:39:25.636Z,160
2018-04-06T12:40:25.895Z,160
2018-04-06T12:41:25.358Z,160
2018-04-06T12:42:25.892Z,160
2018-04-06T12:43:25.891Z,160
2018-04-06T12:44:25.881Z,160
2018-04-06T12:45:25.846Z,160
2018-04-06T12:46:25.841Z,160
2018-04-06T12:47:25.572Z,160
2018-04-06T12:48:25.569Z,160
2018-04-06T12:49:25.835Z,160
2018-04-06T12:50:25.810Z,160
2018-04-06T12:51:25.802Z,160
2018-04-06T12:52:25.546Z,160
2018-04-06T12:53:25.813Z,160
2018-04-06T12:54:25.567Z,160
2018-04-06T12:55:25.810Z,160
2018-04-06T12:56:25.783Z,160
2018-04-06T12:57:25.765Z,160
2018-04-06T12:58:25.821Z,160
2018-04-06T12:59:25.798Z,160
2018-04-06T13:00:25.756Z,160
2018-04-06T13:01:25.751Z,160
2018-04-06T13:02:25.530Z,160
2018-04-06T13:03:25.526Z,160
2018-04-06T13:04:25.749Z,160
2018-04-06T13:05:25.711Z,160
2018-04-06T13:06:25.716Z,160
2018-04-06T13:07:25.247Z,160
2018-04-06T13:08:25.469Z,160
2018-04-06T13:09:25.465Z,160
2018-04-06T13:10:25.875Z,160
2018-04-06T13:11:25.696Z,160
2018-04-06T13:12:27.758Z,160
2018-04-06T13:13:25.216Z,160
2018-04-06T13:14:25.697Z,160
2018-04-06T13:15:25.670Z,160
2018-04-06T13:16:25.441Z,160
2018-04-06T13:17:25.156Z,160
2018-04-06T13:18:25.858Z,160
2018-04-06T13:19:25.640Z,160
2018-04-06T13:20:25.666Z,160
2018-04-06T13:21:25.395Z,155
2018-04-06T13:22:25.629Z,155
2018-04-06T13:23:25.492Z,155
2018-04-06T13:24:25.354Z,155
2018-04-06T13:25:25.352Z,155
2018-04-06T13:26:25.078Z,155
2018-04-06T13:27:25.334Z,155
2018-04-06T13:28:25.570Z,155
2018-04-06T13:29:25.329Z,155
2018-04-06T13:30:25.343Z,155
2018-04-06T13:31:25.586Z,155
2018-04-06T13:32:25.553Z,155
2018-04-06T13:33:25.562Z,155
2018-04-06T13:34:25.587Z,155
2018-04-06T13:35:25.563Z,155
2018-04-06T13:36:25.299Z,155
2018-04-06T13:37:25.754Z,155
2018-04-06T13:38:25.514Z,155
2018-04-06T13:39:25.519Z,155
2018-04-06T13:40:25.250Z,155
2018-04-06T13:41:25.500Z,155
2018-04-06T13:42:25.502Z,155
2018-04-06T13:43:25.503Z,155
2018-04-06T13:44:25.492Z,155
2018-04-06T13:45:25.492Z,155
2018-04-06T13:46:24.950Z,155
2018-04-06T13:47:25.471Z,155
2018-04-06T13:48:25.238Z,155
2018-04-06T13:49:25.477Z,155
2018-04-06T13:50:25.443Z,155
2018-04-06T13:51:24.928Z,155
2018-04-06T13:52:25.450Z,155
2018-04-06T13:53:25.424Z,155
2018-04-06T13:54:25.413Z,155
2018-04-06T13:55:27.952Z,155
2018-04-06T13:56:25.414Z,155
2018-04-06T13:57:25.149Z,155
2018-04-06T13:59:24.883Z,155
2018-04-06T14:00:25.144Z,155
2018-04-06T14:01:24.905Z,155
2018-04-06T14:02:25.370Z,155
2018-04-06T14:03:25.376Z,155
2018-04-06T14:04:25.104Z,155
2018-04-06T14:05:25.086Z,155
2018-04-06T14:06:25.100Z,155
2018-04-06T14:07:25.334Z,155
2018-04-06T14:08:25.322Z,155
2018-04-06T14:09:25.401Z,155